Pontiac, Michigan
Current Conditions -  °F | °C
As of 5:53 AM on Friday 31 Oct 2014 (Local Time) from KPTK Reporting Station
Light Rain Light Rain  
Wind Chill: 40°   Ceiling: 5500
Heat Index: 43°   Visibility: 10mi
Dew Point: 36°   Wind: 5mph
Humidity: 76%   Direction: 200°SSW
Pressure: 29.89"   Gusts: NA
Location:  42.64°N, 83.29°W
Report Text: KPTK 310953Z 20004KT 10SM -RA FEW038 BKN055 OVC070 06/02 A2989 RMK AO2 RAB45 SLP127 FIRST AUGMENTED OBS OF THE DAY P0000 T00610022
Loading
Personal Weather Stations






























Interactive Weather Map New forecast layout! Learn more

10-Day Weather Forecast

Advertisements
Track Severe Weather on mobile